RJGG

Chūbu Centrair International Airport

Airport
ICAO code
RJGG
IATA Code
NGO
Summary
ICAO Region
APAC
ICAO Territory
Location

Ise Bay, Aichi Prefecture

Serving
Nagoya
Elevation
12 ft
Coordinates
34° 51' 32" N , 136° 48' 52" E
KCC
Metar
Observation
RJGG 010200Z 30005KT 9999 FEW020 25/20 Q1016 BECMG 24005KT
Station
Nagoya Airport
Date/Time
2022-10-01 02:00:00
Wind direction
300°
Wind speed
05 kts
Lowest cloud amount
few clouds
Temperature
25°C
Dew point
20°C
Humidity
73%
QNH
1016 hPa
Weather condition
n/a

Chūbu Centrair International Airport is an airport on an artificial island in Ise Bay, Tokoname City in Aichi Prefecture, 35 km south of Nagoya in central Japan.

Climatology

Humid “subtropical” climate (Köppen climate classification Cfa) - characterized by hot, humid summers and cool winters. Significant amounts of precipitation occur in all seasons in most areas. Winter rainfall (and sometimes snowfall) is associated with large storms that the westerlies steer from west to east. Most summer rainfall occurs during thunderstorms.

Runways

Designator Length Width Surface Rops
18/36 3500 60 PEM Yes/Yes

Airport map

Aerial View

SKYbrary Partners:

Safety knowledge contributed by: